sensor_id;sensor_type;location;lat;lon;timestamp;P1;durP1;ratioP1;P2;durP2;ratioP2
62711;SDS011;48772;55.586;37.730;2022-09-29T00:02:11;6.68;;;5.40;;
62711;SDS011;48772;55.586;37.730;2022-09-29T00:04:36;5.80;;;5.03;;
62711;SDS011;48772;55.586;37.730;2022-09-29T00:07:02;6.63;;;4.65;;
62711;SDS011;48772;55.586;37.730;2022-09-29T00:09:28;7.38;;;4.90;;
62711;SDS011;48772;55.586;37.730;2022-09-29T00:11:54;7.75;;;4.35;;
62711;SDS011;48772;55.586;37.730;2022-09-29T00:14:20;4.97;;;4.10;;
62711;SDS011;48772;55.586;37.730;2022-09-29T00:16:46;6.13;;;4.97;;
62711;SDS011;48772;55.586;37.730;2022-09-29T00:19:11;6.72;;;5.03;;
62711;SDS011;48772;55.586;37.730;2022-09-29T00:21:37;6.82;;;4.78;;
62711;SDS011;48772;55.586;37.730;2022-09-29T00:24:03;7.40;;;5.18;;
62711;SDS011;48772;55.586;37.730;2022-09-29T00:26:28;7.47;;;4.85;;
62711;SDS011;48772;55.586;37.730;2022-09-29T00:28:54;5.72;;;4.43;;
62711;SDS011;48772;55.586;37.730;2022-09-29T00:31:21;6.60;;;4.70;;
62711;SDS011;48772;55.586;37.730;2022-09-29T00:33:47;5.32;;;4.38;;
62711;SDS011;48772;55.586;37.730;2022-09-29T00:36:15;4.68;;;4.18;;
62711;SDS011;48772;55.586;37.730;2022-09-29T00:38:41;5.90;;;4.32;;
62711;SDS011;48772;55.586;37.730;2022-09-29T00:41:07;7.28;;;4.43;;
62711;SDS011;48772;55.586;37.730;2022-09-29T00:43:54;5.22;;;4.47;;
62711;SDS011;48772;55.586;37.730;2022-09-29T00:46:24;7.22;;;4.40;;
62711;SDS011;48772;55.586;37.730;2022-09-29T00:48:52;6.18;;;4.78;;
62711;SDS011;48772;55.586;37.730;2022-09-29T00:51:18;7.30;;;4.72;;
62711;SDS011;48772;55.586;37.730;2022-09-29T00:53:44;5.15;;;4.63;;
62711;SDS011;48772;55.586;37.730;2022-09-29T00:56:11;6.03;;;5.00;;
62711;SDS011;48772;55.586;37.730;2022-09-29T00:58:42;5.72;;;4.60;;
62711;SDS011;48772;55.586;37.730;2022-09-29T01:01:10;7.07;;;4.80;;
62711;SDS011;48772;55.586;37.730;2022-09-29T01:03:37;7.00;;;4.70;;
62711;SDS011;48772;55.586;37.730;2022-09-29T01:06:06;6.43;;;4.60;;
62711;SDS011;48772;55.586;37.730;2022-09-29T01:08:52;5.72;;;4.70;;
62711;SDS011;48772;55.586;37.730;2022-09-29T01:11:21;9.60;;;5.28;;
62711;SDS011;48772;55.586;37.730;2022-09-29T01:13:47;5.03;;;4.38;;
62711;SDS011;48772;55.586;37.730;2022-09-29T01:16:13;8.35;;;6.13;;
62711;SDS011;48772;55.586;37.730;2022-09-29T01:18:38;8.93;;;5.53;;
62711;SDS011;48772;55.586;37.730;2022-09-29T01:23:41;6.45;;;4.75;;
62711;SDS011;48772;55.586;37.730;2022-09-29T01:31:30;7.82;;;5.18;;
62711;SDS011;48772;55.586;37.730;2022-09-29T01:34:11;7.90;;;5.55;;
62711;SDS011;48772;55.586;37.730;2022-09-29T01:36:46;7.22;;;5.45;;
62711;SDS011;48772;55.586;37.730;2022-09-29T01:39:16;6.15;;;5.20;;
62711;SDS011;48772;55.586;37.730;2022-09-29T01:41:47;7.68;;;5.50;;
62711;SDS011;48772;55.586;37.730;2022-09-29T01:46:47;8.32;;;6.25;;
62711;SDS011;48772;55.586;37.730;2022-09-29T01:49:15;8.63;;;5.53;;
62711;SDS011;48772;55.586;37.730;2022-09-29T01:54:15;7.93;;;6.05;;
62711;SDS011;48772;55.586;37.730;2022-09-29T01:56:56;8.75;;;6.18;;
62711;SDS011;48772;55.586;37.730;2022-09-29T01:59:25;10.68;;;6.40;;
62711;SDS011;48772;55.586;37.730;2022-09-29T02:01:53;11.75;;;6.07;;
62711;SDS011;48772;55.586;37.730;2022-09-29T02:04:29;8.77;;;5.70;;
62711;SDS011;48772;55.586;37.730;2022-09-29T02:07:07;8.32;;;6.13;;
62711;SDS011;48772;55.586;37.730;2022-09-29T02:09:36;10.10;;;6.43;;
62711;SDS011;48772;55.586;37.730;2022-09-29T02:12:03;13.82;;;7.28;;
62711;SDS011;48772;55.586;37.730;2022-09-29T02:14:30;9.25;;;6.75;;
62711;SDS011;48772;55.586;37.730;2022-09-29T02:17:17;10.02;;;6.72;;
62711;SDS011;48772;55.586;37.730;2022-09-29T02:19:44;11.02;;;6.97;;
62711;SDS011;48772;55.586;37.730;2022-09-29T02:22:11;11.27;;;7.40;;
62711;SDS011;48772;55.586;37.730;2022-09-29T02:24:36;13.20;;;7.35;;
62711;SDS011;48772;55.586;37.730;2022-09-29T02:27:02;13.40;;;7.40;;
62711;SDS011;48772;55.586;37.730;2022-09-29T02:29:28;12.45;;;7.10;;
62711;SDS011;48772;55.586;37.730;2022-09-29T02:31:54;11.68;;;6.45;;
62711;SDS011;48772;55.586;37.730;2022-09-29T02:34:21;14.00;;;7.20;;
62711;SDS011;48772;55.586;37.730;2022-09-29T02:39:30;10.77;;;7.25;;
62711;SDS011;48772;55.586;37.730;2022-09-29T02:49:51;12.07;;;7.25;;
62711;SDS011;48772;55.586;37.730;2022-09-29T02:52:25;12.02;;;7.30;;
62711;SDS011;48772;55.586;37.730;2022-09-29T02:57:30;12.98;;;6.82;;
62711;SDS011;48772;55.586;37.730;2022-09-29T03:02:36;12.93;;;7.70;;
62711;SDS011;48772;55.586;37.730;2022-09-29T03:05:05;13.27;;;7.35;;
62711;SDS011;48772;55.586;37.730;2022-09-29T03:07:32;15.02;;;8.45;;
62711;SDS011;48772;55.586;37.730;2022-09-29T03:09:57;11.38;;;7.85;;
62711;SDS011;48772;55.586;37.730;2022-09-29T03:12:23;11.10;;;8.05;;
62711;SDS011;48772;55.586;37.730;2022-09-29T03:14:48;15.85;;;8.85;;
62711;SDS011;48772;55.586;37.730;2022-09-29T03:17:17;11.05;;;7.45;;
62711;SDS011;48772;55.586;37.730;2022-09-29T03:19:43;12.13;;;7.85;;
62711;SDS011;48772;55.586;37.730;2022-09-29T03:22:08;12.48;;;9.35;;
62711;SDS011;48772;55.586;37.730;2022-09-29T03:24:34;11.88;;;8.38;;
62711;SDS011;48772;55.586;37.730;2022-09-29T03:27:00;11.45;;;8.70;;
62711;SDS011;48772;55.586;37.730;2022-09-29T03:29:26;14.82;;;8.82;;
62711;SDS011;48772;55.586;37.730;2022-09-29T03:31:51;15.00;;;8.95;;
62711;SDS011;48772;55.586;37.730;2022-09-29T03:34:17;16.30;;;8.38;;
62711;SDS011;48772;55.586;37.730;2022-09-29T03:36:42;14.30;;;7.88;;
62711;SDS011;48772;55.586;37.730;2022-09-29T03:39:08;11.13;;;8.30;;
62711;SDS011;48772;55.586;37.730;2022-09-29T03:41:34;9.88;;;7.82;;
62711;SDS011;48772;55.586;37.730;2022-09-29T03:43:59;13.15;;;8.68;;
62711;SDS011;48772;55.586;37.730;2022-09-29T03:46:25;11.48;;;8.20;;
62711;SDS011;48772;55.586;37.730;2022-09-29T03:48:50;11.63;;;7.40;;
62711;SDS011;48772;55.586;37.730;2022-09-29T03:51:16;10.27;;;7.63;;
62711;SDS011;48772;55.586;37.730;2022-09-29T03:53:42;14.50;;;7.93;;
62711;SDS011;48772;55.586;37.730;2022-09-29T03:56:08;18.42;;;7.72;;
62711;SDS011;48772;55.586;37.730;2022-09-29T03:58:33;12.23;;;7.22;;
62711;SDS011;48772;55.586;37.730;2022-09-29T04:00:59;10.55;;;7.32;;
62711;SDS011;48772;55.586;37.730;2022-09-29T04:03:26;14.38;;;7.85;;
62711;SDS011;48772;55.586;37.730;2022-09-29T04:05:52;11.75;;;7.93;;
62711;SDS011;48772;55.586;37.730;2022-09-29T04:08:17;9.68;;;7.80;;
62711;SDS011;48772;55.586;37.730;2022-09-29T04:10:44;12.25;;;7.30;;
62711;SDS011;48772;55.586;37.730;2022-09-29T04:13:10;12.38;;;7.50;;
62711;SDS011;48772;55.586;37.730;2022-09-29T04:15:36;11.65;;;7.22;;
62711;SDS011;48772;55.586;37.730;2022-09-29T04:18:02;11.07;;;8.30;;
62711;SDS011;48772;55.586;37.730;2022-09-29T04:20:28;11.23;;;7.60;;
62711;SDS011;48772;55.586;37.730;2022-09-29T04:22:53;10.02;;;6.90;;
62711;SDS011;48772;55.586;37.730;2022-09-29T04:25:19;9.40;;;7.13;;
62711;SDS011;48772;55.586;37.730;2022-09-29T04:27:44;11.38;;;7.55;;
62711;SDS011;48772;55.586;37.730;2022-09-29T04:30:10;8.13;;;6.50;;
62711;SDS011;48772;55.586;37.730;2022-09-29T04:32:36;9.40;;;6.43;;
62711;SDS011;48772;55.586;37.730;2022-09-29T04:35:01;11.32;;;6.90;;
62711;SDS011;48772;55.586;37.730;2022-09-29T04:37:29;7.95;;;5.53;;
62711;SDS011;48772;55.586;37.730;2022-09-29T04:39:55;7.15;;;5.32;;
62711;SDS011;48772;55.586;37.730;2022-09-29T04:42:21;7.05;;;5.55;;
62711;SDS011;48772;55.586;37.730;2022-09-29T04:44:46;7.65;;;6.10;;
62711;SDS011;48772;55.586;37.730;2022-09-29T04:47:12;9.20;;;6.03;;
62711;SDS011;48772;55.586;37.730;2022-09-29T04:49:38;9.27;;;6.13;;
62711;SDS011;48772;55.586;37.730;2022-09-29T04:52:04;8.60;;;6.22;;
62711;SDS011;48772;55.586;37.730;2022-09-29T04:54:33;8.95;;;5.25;;
62711;SDS011;48772;55.586;37.730;2022-09-29T04:56:58;9.80;;;6.22;;
62711;SDS011;48772;55.586;37.730;2022-09-29T04:59:25;10.30;;;5.57;;
62711;SDS011;48772;55.586;37.730;2022-09-29T05:01:51;11.55;;;6.60;;
62711;SDS011;48772;55.586;37.730;2022-09-29T05:04:17;10.73;;;7.18;;
62711;SDS011;48772;55.586;37.730;2022-09-29T05:06:42;13.00;;;6.25;;
62711;SDS011;48772;55.586;37.730;2022-09-29T05:09:08;7.20;;;5.65;;
62711;SDS011;48772;55.586;37.730;2022-09-29T05:11:34;11.35;;;6.35;;
62711;SDS011;48772;55.586;37.730;2022-09-29T05:13:59;10.00;;;6.57;;
62711;SDS011;48772;55.586;37.730;2022-09-29T05:16:25;7.35;;;4.88;;
62711;SDS011;48772;55.586;37.730;2022-09-29T05:18:51;10.88;;;6.85;;
62711;SDS011;48772;55.586;37.730;2022-09-29T05:21:16;12.18;;;6.55;;
62711;SDS011;48772;55.586;37.730;2022-09-29T05:23:42;10.38;;;4.82;;
62711;SDS011;48772;55.586;37.730;2022-09-29T05:26:09;14.07;;;7.45;;
62711;SDS011;48772;55.586;37.730;2022-09-29T05:28:35;17.88;;;6.78;;
62711;SDS011;48772;55.586;37.730;2022-09-29T05:31:04;15.65;;;8.05;;
62711;SDS011;48772;55.586;37.730;2022-09-29T05:33:30;21.05;;;7.78;;
62711;SDS011;48772;55.586;37.730;2022-09-29T05:35:56;17.13;;;7.53;;
62711;SDS011;48772;55.586;37.730;2022-09-29T05:38:22;18.95;;;8.20;;
62711;SDS011;48772;55.586;37.730;2022-09-29T05:40:49;21.88;;;8.75;;
62711;SDS011;48772;55.586;37.730;2022-09-29T05:43:14;12.50;;;6.65;;
62711;SDS011;48772;55.586;37.730;2022-09-29T05:45:40;28.88;;;12.93;;
62711;SDS011;48772;55.586;37.730;2022-09-29T05:48:07;13.23;;;8.27;;
62711;SDS011;48772;55.586;37.730;2022-09-29T05:50:33;12.10;;;8.63;;
62711;SDS011;48772;55.586;37.730;2022-09-29T05:53:08;22.52;;;8.40;;
62711;SDS011;48772;55.586;37.730;2022-09-29T05:55:35;16.30;;;8.48;;
62711;SDS011;48772;55.586;37.730;2022-09-29T05:58:01;16.55;;;8.02;;
62711;SDS011;48772;55.586;37.730;2022-09-29T06:00:26;11.43;;;7.80;;
62711;SDS011;48772;55.586;37.730;2022-09-29T06:02:52;19.52;;;8.85;;
62711;SDS011;48772;55.586;37.730;2022-09-29T06:05:18;13.55;;;8.20;;
62711;SDS011;48772;55.586;37.730;2022-09-29T06:07:44;15.93;;;8.82;;
62711;SDS011;48772;55.586;37.730;2022-09-29T06:10:09;15.60;;;8.02;;
62711;SDS011;48772;55.586;37.730;2022-09-29T06:12:36;15.27;;;9.05;;
62711;SDS011;48772;55.586;37.730;2022-09-29T06:15:02;14.75;;;6.68;;
62711;SDS011;48772;55.586;37.730;2022-09-29T06:17:29;13.10;;;7.35;;
62711;SDS011;48772;55.586;37.730;2022-09-29T06:19:55;10.55;;;7.57;;
62711;SDS011;48772;55.586;37.730;2022-09-29T06:22:20;13.18;;;9.15;;
62711;SDS011;48772;55.586;37.730;2022-09-29T06:24:46;16.48;;;9.75;;
62711;SDS011;48772;55.586;37.730;2022-09-29T06:27:11;16.98;;;9.75;;
62711;SDS011;48772;55.586;37.730;2022-09-29T06:29:37;13.57;;;8.98;;
62711;SDS011;48772;55.586;37.730;2022-09-29T06:32:03;13.15;;;8.18;;
62711;SDS011;48772;55.586;37.730;2022-09-29T06:34:28;18.17;;;10.32;;
62711;SDS011;48772;55.586;37.730;2022-09-29T06:36:54;19.10;;;11.35;;
62711;SDS011;48772;55.586;37.730;2022-09-29T06:39:38;14.45;;;9.07;;
62711;SDS011;48772;55.586;37.730;2022-09-29T06:42:03;17.45;;;9.48;;
62711;SDS011;48772;55.586;37.730;2022-09-29T06:44:29;18.58;;;9.90;;
62711;SDS011;48772;55.586;37.730;2022-09-29T06:46:55;16.88;;;10.20;;
62711;SDS011;48772;55.586;37.730;2022-09-29T06:49:21;19.90;;;9.82;;
62711;SDS011;48772;55.586;37.730;2022-09-29T06:51:47;18.02;;;9.60;;
62711;SDS011;48772;55.586;37.730;2022-09-29T06:54:14;21.98;;;11.10;;
62711;SDS011;48772;55.586;37.730;2022-09-29T06:56:41;30.80;;;11.90;;
62711;SDS011;48772;55.586;37.730;2022-09-29T06:59:07;22.67;;;9.93;;
62711;SDS011;48772;55.586;37.730;2022-09-29T07:01:33;20.25;;;10.27;;
62711;SDS011;48772;55.586;37.730;2022-09-29T07:03:58;23.20;;;11.13;;
62711;SDS011;48772;55.586;37.730;2022-09-29T07:06:25;17.83;;;9.88;;
62711;SDS011;48772;55.586;37.730;2022-09-29T07:08:53;10.63;;;5.68;;
62711;SDS011;48772;55.586;37.730;2022-09-29T07:11:20;14.05;;;7.03;;
62711;SDS011;48772;55.586;37.730;2022-09-29T07:13:46;19.80;;;8.90;;
62711;SDS011;48772;55.586;37.730;2022-09-29T07:16:12;20.08;;;9.27;;
62711;SDS011;48772;55.586;37.730;2022-09-29T07:18:38;16.55;;;8.60;;
62711;SDS011;48772;55.586;37.730;2022-09-29T07:21:05;11.63;;;6.53;;
62711;SDS011;48772;55.586;37.730;2022-09-29T07:23:31;17.40;;;8.02;;
62711;SDS011;48772;55.586;37.730;2022-09-29T07:25:57;17.60;;;9.48;;
62711;SDS011;48772;55.586;37.730;2022-09-29T07:28:22;14.38;;;7.70;;
62711;SDS011;48772;55.586;37.730;2022-09-29T07:30:58;16.42;;;7.55;;
62711;SDS011;48772;55.586;37.730;2022-09-29T07:33:24;20.25;;;9.25;;
62711;SDS011;48772;55.586;37.730;2022-09-29T07:35:53;14.02;;;7.18;;
62711;SDS011;48772;55.586;37.730;2022-09-29T07:38:18;15.10;;;8.90;;
62711;SDS011;48772;55.586;37.730;2022-09-29T07:40:44;21.88;;;10.05;;
62711;SDS011;48772;55.586;37.730;2022-09-29T07:43:10;18.85;;;11.13;;
62711;SDS011;48772;55.586;37.730;2022-09-29T07:45:35;16.40;;;9.35;;
62711;SDS011;48772;55.586;37.730;2022-09-29T07:48:01;18.85;;;10.75;;
62711;SDS011;48772;55.586;37.730;2022-09-29T07:50:26;19.20;;;8.77;;
62711;SDS011;48772;55.586;37.730;2022-09-29T07:52:52;18.58;;;8.13;;
62711;SDS011;48772;55.586;37.730;2022-09-29T07:55:18;18.33;;;10.48;;
62711;SDS011;48772;55.586;37.730;2022-09-29T07:57:48;13.45;;;8.73;;
62711;SDS011;48772;55.586;37.730;2022-09-29T08:00:14;13.88;;;8.88;;
62711;SDS011;48772;55.586;37.730;2022-09-29T08:02:41;19.25;;;9.93;;
62711;SDS011;48772;55.586;37.730;2022-09-29T08:05:07;17.25;;;10.63;;
62711;SDS011;48772;55.586;37.730;2022-09-29T08:07:33;14.23;;;9.63;;
62711;SDS011;48772;55.586;37.730;2022-09-29T08:09:59;13.13;;;9.13;;
62711;SDS011;48772;55.586;37.730;2022-09-29T08:12:24;15.60;;;8.43;;
62711;SDS011;48772;55.586;37.730;2022-09-29T08:14:51;15.18;;;8.35;;
62711;SDS011;48772;55.586;37.730;2022-09-29T08:17:17;10.82;;;7.20;;
62711;SDS011;48772;55.586;37.730;2022-09-29T08:19:42;14.57;;;9.35;;
62711;SDS011;48772;55.586;37.730;2022-09-29T08:22:08;14.25;;;7.18;;
62711;SDS011;48772;55.586;37.730;2022-09-29T08:24:34;19.08;;;9.73;;
62711;SDS011;48772;55.586;37.730;2022-09-29T08:27:02;13.40;;;8.52;;
62711;SDS011;48772;55.586;37.730;2022-09-29T08:29:32;13.75;;;9.85;;
62711;SDS011;48772;55.586;37.730;2022-09-29T08:31:58;11.88;;;8.48;;
62711;SDS011;48772;55.586;37.730;2022-09-29T08:34:23;10.50;;;8.48;;
62711;SDS011;48772;55.586;37.730;2022-09-29T08:36:49;17.23;;;9.25;;
62711;SDS011;48772;55.586;37.730;2022-09-29T08:39:16;13.07;;;8.27;;
62711;SDS011;48772;55.586;37.730;2022-09-29T08:42:01;13.55;;;8.32;;
62711;SDS011;48772;55.586;37.730;2022-09-29T08:47:00;14.63;;;8.90;;
62711;SDS011;48772;55.586;37.730;2022-09-29T08:52:07;15.52;;;8.85;;
62711;SDS011;48772;55.586;37.730;2022-09-29T08:54:34;15.87;;;8.83;;
62711;SDS011;48772;55.586;37.730;2022-09-29T08:57:00;14.95;;;9.70;;
62711;SDS011;48772;55.586;37.730;2022-09-29T08:59:27;18.30;;;9.95;;
62711;SDS011;48772;55.586;37.730;2022-09-29T09:04:39;16.05;;;9.88;;
62711;SDS011;48772;55.586;37.730;2022-09-29T09:09:49;14.98;;;8.35;;
62711;SDS011;48772;55.586;37.730;2022-09-29T09:12:23;15.45;;;9.60;;
62711;SDS011;48772;55.586;37.730;2022-09-29T09:20:02;15.50;;;9.60;;
62711;SDS011;48772;55.586;37.730;2022-09-29T09:22:32;18.90;;;10.07;;
62711;SDS011;48772;55.586;37.730;2022-09-29T09:25:04;12.45;;;8.07;;
62711;SDS011;48772;55.586;37.730;2022-09-29T09:27:33;19.45;;;10.00;;
62711;SDS011;48772;55.586;37.730;2022-09-29T09:30:06;14.43;;;8.60;;
62711;SDS011;48772;55.586;37.730;2022-09-29T09:32:38;18.92;;;11.25;;
62711;SDS011;48772;55.586;37.730;2022-09-29T09:35:20;17.27;;;10.48;;
62711;SDS011;48772;55.586;37.730;2022-09-29T09:37:48;17.50;;;10.75;;
62711;SDS011;48772;55.586;37.730;2022-09-29T09:40:22;25.33;;;11.88;;
62711;SDS011;48772;55.586;37.730;2022-09-29T09:42:51;15.40;;;7.95;;
62711;SDS011;48772;55.586;37.730;2022-09-29T09:45:36;12.23;;;7.30;;
62711;SDS011;48772;55.586;37.730;2022-09-29T09:50:39;14.68;;;8.60;;
62711;SDS011;48772;55.586;37.730;2022-09-29T09:53:40;23.33;;;11.77;;
62711;SDS011;48772;55.586;37.730;2022-09-29T09:56:06;19.98;;;11.55;;
62711;SDS011;48772;55.586;37.730;2022-09-29T09:58:39;19.17;;;10.82;;
62711;SDS011;48772;55.586;37.730;2022-09-29T10:01:10;20.10;;;10.80;;
62711;SDS011;48772;55.586;37.730;2022-09-29T10:03:38;20.13;;;10.32;;
62711;SDS011;48772;55.586;37.730;2022-09-29T10:06:07;17.20;;;9.23;;
62711;SDS011;48772;55.586;37.730;2022-09-29T10:08:34;19.83;;;11.00;;
62711;SDS011;48772;55.586;37.730;2022-09-29T10:11:08;19.90;;;11.57;;
62711;SDS011;48772;55.586;37.730;2022-09-29T10:13:36;22.17;;;11.68;;
62711;SDS011;48772;55.586;37.730;2022-09-29T10:16:16;16.67;;;9.30;;
62711;SDS011;48772;55.586;37.730;2022-09-29T10:18:44;14.70;;;9.60;;
62711;SDS011;48772;55.586;37.730;2022-09-29T10:21:19;16.83;;;10.30;;
62711;SDS011;48772;55.586;37.730;2022-09-29T10:23:57;22.60;;;11.50;;
62711;SDS011;48772;55.586;37.730;2022-09-29T10:28:57;17.55;;;9.80;;
62711;SDS011;48772;55.586;37.730;2022-09-29T10:31:33;22.58;;;10.52;;
62711;SDS011;48772;55.586;37.730;2022-09-29T10:34:02;23.23;;;10.85;;
62711;SDS011;48772;55.586;37.730;2022-09-29T10:36:30;19.58;;;11.75;;
62711;SDS011;48772;55.586;37.730;2022-09-29T10:38:57;17.95;;;11.07;;
62711;SDS011;48772;55.586;37.730;2022-09-29T10:41:23;24.33;;;11.68;;
62711;SDS011;48772;55.586;37.730;2022-09-29T10:43:52;18.80;;;10.32;;
62711;SDS011;48772;55.586;37.730;2022-09-29T10:46:36;27.50;;;11.18;;
62711;SDS011;48772;55.586;37.730;2022-09-29T10:49:16;15.38;;;9.48;;
62711;SDS011;48772;55.586;37.730;2022-09-29T10:52:05;13.48;;;7.20;;
62711;SDS011;48772;55.586;37.730;2022-09-29T10:54:29;12.93;;;8.77;;
62711;SDS011;48772;55.586;37.730;2022-09-29T10:56:56;12.77;;;8.15;;
62711;SDS011;48772;55.586;37.730;2022-09-29T10:59:22;12.32;;;7.60;;
62711;SDS011;48772;55.586;37.730;2022-09-29T11:01:49;13.70;;;8.27;;
62711;SDS011;48772;55.586;37.730;2022-09-29T11:04:21;12.23;;;7.13;;
62711;SDS011;48772;55.586;37.730;2022-09-29T11:06:48;13.05;;;7.60;;
62711;SDS011;48772;55.586;37.730;2022-09-29T11:17:00;16.20;;;8.60;;
62711;SDS011;48772;55.586;37.730;2022-09-29T11:19:26;13.07;;;8.73;;
62711;SDS011;48772;55.586;37.730;2022-09-29T11:26:57;13.10;;;7.40;;
62711;SDS011;48772;55.586;37.730;2022-09-29T11:29:26;11.02;;;6.80;;
62711;SDS011;48772;55.586;37.730;2022-09-29T11:37:03;14.95;;;5.38;;
62711;SDS011;48772;55.586;37.730;2022-09-29T11:57:03;6.30;;;4.68;;
62711;SDS011;48772;55.586;37.730;2022-09-29T12:05:05;7.45;;;5.38;;
62711;SDS011;48772;55.586;37.730;2022-09-29T12:07:32;7.82;;;5.75;;
62711;SDS011;48772;55.586;37.730;2022-09-29T12:12:56;8.38;;;5.43;;
62711;SDS011;48772;55.586;37.730;2022-09-29T12:17:55;12.95;;;6.68;;
62711;SDS011;48772;55.586;37.730;2022-09-29T12:22:49;11.35;;;6.35;;
62711;SDS011;48772;55.586;37.730;2022-09-29T12:25:23;12.80;;;6.45;;
62711;SDS011;48772;55.586;37.730;2022-09-29T12:27:55;9.60;;;5.78;;
62711;SDS011;48772;55.586;37.730;2022-09-29T12:32:53;10.43;;;7.03;;
62711;SDS011;48772;55.586;37.730;2022-09-29T12:38:14;16.13;;;6.80;;
62711;SDS011;48772;55.586;37.730;2022-09-29T12:45:42;11.45;;;6.00;;
62711;SDS011;48772;55.586;37.730;2022-09-29T12:48:57;8.32;;;5.90;;
62711;SDS011;48772;55.586;37.730;2022-09-29T12:51:03;9.02;;;5.97;;
62711;SDS011;48772;55.586;37.730;2022-09-29T12:58:53;8.52;;;4.70;;
62711;SDS011;48772;55.586;37.730;2022-09-29T13:01:33;11.02;;;4.50;;
62711;SDS011;48772;55.586;37.730;2022-09-29T13:14:32;9.02;;;5.90;;
62711;SDS011;48772;55.586;37.730;2022-09-29T13:27:37;18.35;;;7.15;;
62711;SDS011;48772;55.586;37.730;2022-09-29T13:35:25;7.85;;;4.70;;
62711;SDS011;48772;55.586;37.730;2022-09-29T13:40:22;14.88;;;6.90;;
62711;SDS011;48772;55.586;37.730;2022-09-29T13:42:52;9.75;;;6.28;;
62711;SDS011;48772;55.586;37.730;2022-09-29T13:47:46;8.98;;;4.80;;
62711;SDS011;48772;55.586;37.730;2022-09-29T13:55:48;8.98;;;4.90;;
62711;SDS011;48772;55.586;37.730;2022-09-29T13:58:27;8.30;;;5.80;;
62711;SDS011;48772;55.586;37.730;2022-09-29T14:00:54;9.02;;;5.40;;
62711;SDS011;48772;55.586;37.730;2022-09-29T14:05:54;11.85;;;4.75;;
62711;SDS011;48772;55.586;37.730;2022-09-29T14:08:26;8.23;;;5.35;;
62711;SDS011;48772;55.586;37.730;2022-09-29T14:10:57;11.43;;;5.65;;
62711;SDS011;48772;55.586;37.730;2022-09-29T14:13:39;9.07;;;4.78;;
62711;SDS011;48772;55.586;37.730;2022-09-29T14:16:17;10.30;;;6.57;;
62711;SDS011;48772;55.586;37.730;2022-09-29T14:18:46;12.65;;;6.97;;
62711;SDS011;48772;55.586;37.730;2022-09-29T14:21:14;10.38;;;5.15;;
62711;SDS011;48772;55.586;37.730;2022-09-29T14:23:58;13.07;;;6.85;;
62711;SDS011;48772;55.586;37.730;2022-09-29T14:26:43;14.30;;;7.20;;
62711;SDS011;48772;55.586;37.730;2022-09-29T14:29:10;9.93;;;6.72;;
62711;SDS011;48772;55.586;37.730;2022-09-29T14:31:39;12.55;;;6.78;;
62711;SDS011;48772;55.586;37.730;2022-09-29T14:34:06;10.75;;;6.38;;
62711;SDS011;48772;55.586;37.730;2022-09-29T14:36:36;15.45;;;7.88;;
62711;SDS011;48772;55.586;37.730;2022-09-29T14:39:06;12.70;;;7.45;;
62711;SDS011;48772;55.586;37.730;2022-09-29T14:41:31;11.73;;;6.80;;
62711;SDS011;48772;55.586;37.730;2022-09-29T14:44:05;13.82;;;7.80;;
62711;SDS011;48772;55.586;37.730;2022-09-29T14:52:28;16.58;;;7.97;;
62711;SDS011;48772;55.586;37.730;2022-09-29T14:57:21;15.95;;;7.97;;
62711;SDS011;48772;55.586;37.730;2022-09-29T15:00:08;11.75;;;7.13;;
62711;SDS011;48772;55.586;37.730;2022-09-29T15:02:36;13.15;;;8.70;;
62711;SDS011;48772;55.586;37.730;2022-09-29T15:05:26;15.52;;;9.45;;
62711;SDS011;48772;55.586;37.730;2022-09-29T15:07:52;14.48;;;8.68;;
62711;SDS011;48772;55.586;37.730;2022-09-29T15:10:23;20.13;;;9.88;;
62711;SDS011;48772;55.586;37.730;2022-09-29T15:12:48;14.63;;;7.88;;
62711;SDS011;48772;55.586;37.730;2022-09-29T15:15:30;15.07;;;8.80;;
62711;SDS011;48772;55.586;37.730;2022-09-29T15:18:08;13.90;;;8.27;;
62711;SDS011;48772;55.586;37.730;2022-09-29T15:20:48;14.38;;;8.75;;
62711;SDS011;48772;55.586;37.730;2022-09-29T15:25:46;17.40;;;10.32;;
62711;SDS011;48772;55.586;37.730;2022-09-29T15:28:14;16.40;;;10.00;;
62711;SDS011;48772;55.586;37.730;2022-09-29T15:30:41;15.15;;;10.35;;
62711;SDS011;48772;55.586;37.730;2022-09-29T15:35:40;20.00;;;10.60;;
62711;SDS011;48772;55.586;37.730;2022-09-29T15:40:34;14.75;;;9.88;;
62711;SDS011;48772;55.586;37.730;2022-09-29T15:43:17;23.33;;;10.50;;
62711;SDS011;48772;55.586;37.730;2022-09-29T15:45:51;17.00;;;11.65;;
62711;SDS011;48772;55.586;37.730;2022-09-29T15:48:16;23.10;;;13.30;;
62711;SDS011;48772;55.586;37.730;2022-09-29T15:50:42;20.27;;;10.52;;
62711;SDS011;48772;55.586;37.730;2022-09-29T15:53:08;19.25;;;11.77;;
62711;SDS011;48772;55.586;37.730;2022-09-29T15:55:34;22.25;;;12.30;;
62711;SDS011;48772;55.586;37.730;2022-09-29T15:58:00;21.48;;;11.50;;
62711;SDS011;48772;55.586;37.730;2022-09-29T16:03:08;21.50;;;12.35;;
62711;SDS011;48772;55.586;37.730;2022-09-29T16:05:36;18.65;;;10.82;;
62711;SDS011;48772;55.586;37.730;2022-09-29T16:08:03;22.02;;;11.98;;
62711;SDS011;48772;55.586;37.730;2022-09-29T16:10:30;21.67;;;13.40;;
62711;SDS011;48772;55.586;37.730;2022-09-29T16:12:57;26.38;;;14.82;;
62711;SDS011;48772;55.586;37.730;2022-09-29T16:15:28;27.83;;;14.95;;
62711;SDS011;48772;55.586;37.730;2022-09-29T16:17:55;35.75;;;16.02;;
62711;SDS011;48772;55.586;37.730;2022-09-29T16:20:28;46.50;;;17.13;;
62711;SDS011;48772;55.586;37.730;2022-09-29T16:22:53;39.10;;;15.32;;
62711;SDS011;48772;55.586;37.730;2022-09-29T16:25:27;30.45;;;14.27;;
62711;SDS011;48772;55.586;37.730;2022-09-29T16:27:57;29.83;;;15.55;;
62711;SDS011;48772;55.586;37.730;2022-09-29T16:33:39;22.80;;;14.18;;
62711;SDS011;48772;55.586;37.730;2022-09-29T16:39:50;24.83;;;15.25;;
62711;SDS011;48772;55.586;37.730;2022-09-29T16:42:19;26.38;;;13.70;;
62711;SDS011;48772;55.586;37.730;2022-09-29T16:44:46;21.33;;;9.18;;
62711;SDS011;48772;55.586;37.730;2022-09-29T16:47:15;27.52;;;12.82;;
62711;SDS011;48772;55.586;37.730;2022-09-29T16:54:39;18.50;;;10.32;;
62711;SDS011;48772;55.586;37.730;2022-09-29T16:59:35;18.25;;;9.45;;
62711;SDS011;48772;55.586;37.730;2022-09-29T17:02:03;13.90;;;7.78;;
62711;SDS011;48772;55.586;37.730;2022-09-29T17:04:33;21.88;;;11.70;;
62711;SDS011;48772;55.586;37.730;2022-09-29T17:06:58;14.38;;;8.48;;
62711;SDS011;48772;55.586;37.730;2022-09-29T17:09:25;15.15;;;6.68;;
62711;SDS011;48772;55.586;37.730;2022-09-29T17:11:51;17.30;;;10.15;;
62711;SDS011;48772;55.586;37.730;2022-09-29T17:14:16;16.40;;;10.05;;
62711;SDS011;48772;55.586;37.730;2022-09-29T17:16:48;15.98;;;8.30;;
62711;SDS011;48772;55.586;37.730;2022-09-29T17:19:23;14.32;;;8.52;;
62711;SDS011;48772;55.586;37.730;2022-09-29T17:21:49;18.85;;;7.88;;
62711;SDS011;48772;55.586;37.730;2022-09-29T17:24:17;18.02;;;10.55;;
62711;SDS011;48772;55.586;37.730;2022-09-29T17:26:43;19.98;;;11.00;;
62711;SDS011;48772;55.586;37.730;2022-09-29T17:29:29;23.27;;;12.52;;
62711;SDS011;48772;55.586;37.730;2022-09-29T17:35:00;23.52;;;14.88;;
62711;SDS011;48772;55.586;37.730;2022-09-29T17:37:26;34.45;;;16.65;;
62711;SDS011;48772;55.586;37.730;2022-09-29T17:39:52;30.98;;;13.80;;